Time;durP1;ratioP1;P1;durP2;ratioP2;P2;SDS_P1;SDS_P2;PMS_P1;PMS_P2;Temp;Humidity;BMP_temperature;BMP_pressure;BME280_temperature;BME280_humidity;BME280_pressure;Samples;Min_cycle;Max_cycle;Signal;HPM_P1;HPM_P2
2023/09/01 00:00:59;;;;;;;4.60;1.47;;;;;;;16.68;87.22;150258.72;5000769;28;20245;-64
2023/09/01 00:03:47;;;;;;;7.20;1.77;;;;;;;16.48;90.50;150208.72;4992432;28;20278;-64
2023/09/01 00:06:15;;;;;;;4.57;2.03;;;;;;;16.48;93.68;150208.72;4996081;28;20239;-64
2023/09/01 00:08:42;;;;;;;4.80;2.00;;;;;;;16.41;93.39;150191.22;4995312;28;20225;-64
2023/09/01 00:11:09;;;;;;;5.10;2.57;;;;;;;16.33;91.80;150173.72;4998531;28;20245;-64
2023/09/01 00:13:36;;;;;;;7.30;1.80;;;;;;;16.28;94.29;150161.22;4994010;28;20698;-63
2023/09/01 00:16:03;;;;;;;4.07;1.77;;;;;;;16.24;94.87;150151.22;4995901;28;20235;-63
2023/09/01 00:18:31;;;;;;;4.17;2.47;;;;;;;16.23;95.43;150148.72;4997738;28;20232;-64
2023/09/01 00:21:00;;;;;;;7.17;2.03;;;;;;;16.19;95.64;150138.72;4993418;28;20924;-65
2023/09/01 00:23:27;;;;;;;4.20;1.90;;;;;;;16.23;93.75;150148.72;4996632;28;20285;-65
2023/09/01 00:25:55;;;;;;;5.30;1.90;;;;;;;16.33;91.72;150173.72;4993081;28;20240;-64
2023/09/01 00:28:22;;;;;;;4.80;1.80;;;;;;;16.35;91.83;150177.50;4998221;28;20243;-64
2023/09/01 00:30:53;;;;;;;2.87;1.90;;;;;;;16.37;92.81;150183.72;4994585;28;20228;-64
2023/09/01 00:33:19;;;;;;;3.70;2.00;;;;;;;16.35;95.49;150178.72;4996306;28;20229;-64
2023/09/01 00:35:46;;;;;;;5.17;2.27;;;;;;;16.32;94.56;150170.00;4996018;28;20233;-65
2023/09/01 00:38:14;;;;;;;5.60;1.67;;;;;;;16.36;92.45;150180.00;4994904;28;20308;-65
2023/09/01 00:40:41;;;;;;;9.70;1.63;;;;;;;16.44;90.98;150198.72;4971050;28;20349;-65
2023/09/01 00:43:08;;;;;;;7.30;1.70;;;;;;;16.52;89.34;150218.72;4994723;28;20243;-65
2023/09/01 00:45:37;;;;;;;6.23;1.93;;;;;;;16.52;89.73;150219.94;4970442;28;20225;-65
2023/09/01 00:48:03;;;;;;;6.43;1.73;;;;;;;16.58;90.66;150232.44;4974402;28;20250;-65
2023/09/01 00:50:30;;;;;;;5.43;2.00;;;;;;;16.59;89.69;150236.22;4980829;28;20222;-65
2023/09/01 00:52:57;;;;;;;4.80;2.10;;;;;;;16.62;89.32;150243.72;4967575;28;20338;-65
2023/09/01 00:55:25;;;;;;;6.47;1.60;;;;;;;16.67;88.40;150256.22;4979982;28;20215;-65
2023/09/01 00:57:52;;;;;;;5.60;2.00;;;;;;;16.72;87.69;150266.22;4994972;28;20248;-65
2023/09/01 01:00:19;;;;;;;3.97;1.60;;;;;;;16.71;87.92;150263.72;4999225;28;20249;-65
2023/09/01 01:02:46;;;;;;;4.57;2.10;;;;;;;16.87;85.48;150303.75;4969164;28;20711;-65
2023/09/01 01:05:15;;;;;;;5.70;1.70;;;;;;;16.92;84.83;150316.25;4972483;28;20212;-65
2023/09/01 01:07:47;;;;;;;4.43;2.20;;;;;;;16.98;87.13;150330.03;4994285;28;20234;-65
2023/09/01 01:10:19;;;;;;;4.80;1.60;;;;;;;17.06;86.25;150350.03;4996611;28;20212;-63
2023/09/01 01:12:53;;;;;;;3.40;1.57;;;;;;;17.13;86.16;150365.06;4996039;28;20239;-64
2023/09/01 01:15:22;;;;;;;4.47;1.57;;;;;;;17.15;87.42;150371.28;4995367;28;20242;-64
2023/09/01 01:17:50;;;;;;;5.70;1.60;;;;;;;17.19;86.02;150380.06;4971775;28;20224;-64
2023/09/01 01:20:29;;;;;;;3.60;1.47;;;;;;;17.27;85.90;150401.28;4998764;28;20226;-64
2023/09/01 01:23:09;;;;;;;3.43;1.43;;;;;;;17.21;88.79;150385.06;4995010;28;20250;-64
2023/09/01 01:25:36;;;;;;;2.97;1.30;;;;;;;17.27;85.67;150401.28;4993714;28;20241;-64
2023/09/01 01:28:08;;;;;;;3.97;1.40;;;;;;;17.32;86.89;150412.56;4977784;28;20223;-64
2023/09/01 01:30:34;;;;;;;3.53;1.70;;;;;;;17.35;85.52;150420.09;4994127;28;20703;-64
2023/09/01 01:33:01;;;;;;;2.23;1.30;;;;;;;17.41;85.22;150433.81;4994178;28;20237;-64
2023/09/01 01:35:38;;;;;;;2.70;1.50;;;;;;;17.37;85.91;150423.81;4996569;28;20225;-64
2023/09/01 01:38:15;;;;;;;3.97;1.30;;;;;;;17.41;86.16;150433.81;4992574;28;20687;-64
2023/09/01 01:40:45;;;;;;;2.93;1.40;;;;;;;17.48;84.68;150450.09;4996766;28;20233;-64
2023/09/01 01:43:12;;;;;;;7.73;1.50;;;;;;;17.49;85.85;150453.84;4996476;28;20214;-64
2023/09/01 01:45:42;;;;;;;5.20;1.50;;;;;;;17.53;84.82;150462.56;4968857;28;20249;-64
2023/09/01 01:48:08;;;;;;;2.63;1.63;;;;;;;17.45;86.23;150443.81;4979594;28;20224;-64
2023/09/01 01:50:35;;;;;;;5.37;1.20;;;;;;;17.44;85.32;150441.31;4991369;28;20568;-63
2023/09/01 01:53:05;;;;;;;1.80;1.17;;;;;;;17.46;85.04;150445.09;4995204;28;20235;-63
2023/09/01 01:55:33;;;;;;;3.67;1.40;;;;;;;17.54;85.63;150466.34;4993533;28;20208;-63
2023/09/01 01:58:00;;;;;;;6.27;1.40;;;;;;;17.54;84.84;150465.06;4979822;28;20302;-63
2023/09/01 02:00:27;;;;;;;6.83;1.20;;;;;;;17.52;85.58;150461.34;4976642;28;20807;-64
2023/09/01 02:02:54;;;;;;;4.13;1.37;;;;;;;17.66;84.31;150493.88;4996063;28;20233;-64
2023/09/01 02:05:22;;;;;;;3.37;1.10;;;;;;;17.58;86.31;150475.06;4978285;28;20314;-65
2023/09/01 02:07:49;;;;;;;2.80;1.33;;;;;;;17.59;86.25;150477.56;4974071;28;20231;-65
2023/09/01 02:10:17;;;;;;;3.00;1.30;;;;;;;17.68;84.79;150498.88;4977748;28;20241;-65
2023/09/01 02:12:45;;;;;;;2.13;1.10;;;;;;;17.64;85.52;150488.88;4996923;28;20722;-65
2023/09/01 02:15:12;;;;;;;4.97;1.30;;;;;;;17.61;85.55;150481.34;4974954;28;20233;-64
2023/09/01 02:17:39;;;;;;;2.93;1.30;;;;;;;17.68;85.00;150500.09;4992712;28;21603;-64
2023/09/01 02:20:16;;;;;;;1.87;1.10;;;;;;;17.68;84.93;150498.88;4983610;28;20250;-64
2023/09/01 02:22:44;;;;;;;1.90;1.20;;;;;;;17.62;85.59;150483.84;4996019;28;20238;-64
2023/09/01 02:25:12;;;;;;;3.63;1.30;;;;;;;17.64;85.95;150490.09;4973956;28;20234;-63
2023/09/01 02:27:40;;;;;;;4.97;1.30;;;;;;;17.67;85.27;150496.38;4980360;28;20247;-65
2023/09/01 02:30:09;;;;;;;2.73;1.20;;;;;;;17.71;85.22;150506.38;4997844;28;20274;-64
2023/09/01 02:32:36;;;;;;;2.53;1.10;;;;;;;17.71;85.20;150506.38;4978907;28;20242;-65
2023/09/01 02:35:06;;;;;;;5.17;1.20;;;;;;;17.74;85.23;150513.88;4998924;28;20231;-64
2023/09/01 02:37:33;;;;;;;8.17;1.57;;;;;;;17.74;86.06;150512.59;4994514;28;20242;-64
2023/09/01 02:39:59;;;;;;;3.13;1.03;;;;;;;17.76;85.22;150518.88;4998762;28;20262;-64
2023/09/01 02:42:26;;;;;;;3.93;1.20;;;;;;;17.74;86.14;150512.59;4974641;28;20345;-64
2023/09/01 02:44:53;;;;;;;2.90;1.40;;;;;;;17.73;86.75;150510.09;4996386;28;20319;-64
2023/09/01 02:47:21;;;;;;;2.90;1.10;;;;;;;17.68;88.43;150498.88;4998574;28;20715;-64
2023/09/01 02:49:48;;;;;;;3.53;1.00;;;;;;;17.67;88.64;150497.59;4995022;28;20224;-64
2023/09/01 02:52:15;;;;;;;2.30;0.80;;;;;;;17.73;87.49;150510.09;4998693;28;20227;-64
2023/09/01 02:54:41;;;;;;;2.20;0.90;;;;;;;17.75;87.51;150515.13;4970389;28;20264;-64
2023/09/01 02:57:08;;;;;;;1.40;0.70;;;;;;;17.70;87.71;150505.09;4980360;28;20243;-64
2023/09/01 02:59:34;;;;;;;2.00;1.00;;;;;;;17.67;88.17;150496.38;4976578;28;20226;-64
2023/09/01 03:04:59;;;;;;;3.50;1.00;;;;;;;17.66;89.66;150495.09;5187239;23;20680;-64
2023/09/01 03:07:27;;;;;;;3.10;0.87;;;;;;;17.73;88.64;150510.09;4953214;28;20765;-64
2023/09/01 03:09:53;;;;;;;4.60;0.97;;;;;;;17.74;89.06;150513.88;4976743;28;20233;-64
2023/09/01 03:12:21;;;;;;;1.47;0.70;;;;;;;17.80;88.57;150528.91;4976301;28;20249;-64
2023/09/01 03:14:47;;;;;;;3.10;0.90;;;;;;;17.85;86.99;150541.41;4976416;28;20234;-64
2023/09/01 03:17:14;;;;;;;2.73;0.90;;;;;;;17.81;89.47;150531.41;4964665;28;20242;-64
2023/09/01 03:19:41;;;;;;;2.77;1.07;;;;;;;17.82;87.71;150533.91;4958117;28;20227;-64
2023/09/01 03:22:09;;;;;;;4.07;0.77;;;;;;;17.82;88.98;150532.63;4963673;28;20225;-64
2023/09/01 03:24:35;;;;;;;2.00;0.70;;;;;;;17.82;89.12;150532.63;4957217;28;20225;-65
2023/09/01 03:27:02;;;;;;;1.23;0.70;;;;;;;17.80;89.21;150527.63;4983470;28;20300;-64
2023/09/01 03:29:29;;;;;;;1.93;0.80;;;;;;;17.84;88.83;150537.63;4981482;28;21560;-64
2023/09/01 03:31:55;;;;;;;3.83;1.00;;;;;;;17.88;88.91;150546.41;5169361;23;20255;-64
2023/09/01 03:34:23;;;;;;;1.67;0.90;;;;;;;17.87;89.18;150545.13;4954402;28;20692;-64
2023/09/01 03:36:50;;;;;;;1.73;0.83;;;;;;;17.84;89.67;150537.63;4978903;28;20324;-64
2023/09/01 03:39:18;;;;;;;1.47;0.70;;;;;;;17.89;88.69;150548.91;4982748;28;20225;-64
2023/09/01 03:41:44;;;;;;;1.53;0.73;;;;;;;17.85;89.56;150540.13;4978307;28;20244;-64
2023/09/01 03:44:11;;;;;;;2.73;0.90;;;;;;;17.85;90.44;150541.41;4981676;28;20731;-64
2023/09/01 03:46:38;;;;;;;2.97;1.00;;;;;;;17.83;90.19;150536.41;4964386;28;20223;-64
2023/09/01 03:49:04;;;;;;;0.80;0.60;;;;;;;17.80;90.93;150528.91;4962716;28;20221;-64
2023/09/01 03:51:33;;;;;;;2.20;1.03;;;;;;;17.85;90.61;150540.13;4979840;28;20233;-64
2023/09/01 03:54:00;;;;;;;1.50;0.57;;;;;;;17.88;90.57;150546.41;4964765;28;20431;-64
2023/09/01 03:56:31;;;;;;;3.87;1.30;;;;;;;17.84;90.85;150538.91;4973675;23;20614;-65
2023/09/01 03:58:58;;;;;;;2.57;0.60;;;;;;;17.92;89.75;150557.66;4950876;28;20244;-65
2023/09/01 04:01:25;;;;;;;2.93;0.87;;;;;;;17.89;90.42;150548.91;4976068;28;20226;-64
2023/09/01 04:03:51;;;;;;;1.63;0.63;;;;;;;17.87;91.03;150545.13;4974036;28;21150;-64
2023/09/01 04:06:18;;;;;;;1.60;0.80;;;;;;;17.85;90.45;150541.41;4960565;28;20232;-64
2023/09/01 04:08:45;;;;;;;2.40;0.67;;;;;;;17.84;90.93;150537.63;4955550;28;20284;-64
2023/09/01 04:11:12;;;;;;;1.60;0.70;;;;;;;17.82;91.44;150533.91;4975356;28;20232;-64
2023/09/01 04:13:40;;;;;;;4.60;1.00;;;;;;;17.86;90.37;150542.63;4973841;28;20231;-64
2023/09/01 04:16:06;;;;;;;1.83;0.80;;;;;;;17.89;91.49;150548.91;4962208;28;20230;-64
2023/09/01 04:18:33;;;;;;;2.87;0.80;;;;;;;17.82;91.20;150532.63;4958585;28;20595;-64
2023/09/01 04:21:01;;;;;;;2.17;0.80;;;;;;;17.84;91.99;150537.63;4977199;28;20248;-64
2023/09/01 04:23:28;;;;;;;2.00;0.70;;;;;;;17.75;92.83;150516.38;4960771;28;20221;-65
2023/09/01 04:25:55;;;;;;;3.07;0.70;;;;;;;17.71;93.78;150507.59;4975065;28;20628;-65
2023/09/01 04:28:25;;;;;;;1.27;0.70;;;;;;;17.69;95.70;150502.59;4977302;28;20257;-65
2023/09/01 04:30:53;;;;;;;1.27;0.60;;;;;;;17.62;98.23;150483.84;4972500;28;20244;-65
2023/09/01 04:33:20;;;;;;;3.90;0.70;;;;;;;17.45;100.00;150443.81;4960888;28;20232;-65
2023/09/01 04:35:56;;;;;;;4.30;0.63;;;;;;;17.39;100.00;150430.09;4973100;28;20243;-65
2023/09/01 04:38:22;;;;;;;4.20;1.10;;;;;;;17.30;100.00;150406.31;4956356;28;20230;-65
2023/09/01 04:40:55;;;;;;;1.37;0.90;;;;;;;17.23;100.00;150391.28;4957912;28;20232;-65
2023/09/01 04:43:22;;;;;;;2.10;0.70;;;;;;;17.23;100.00;150391.28;4978272;28;20225;-65
2023/09/01 04:45:48;;;;;;;1.93;0.83;;;;;;;17.09;100.00;150357.53;4954715;28;20228;-65
2023/09/01 04:48:16;;;;;;;1.10;0.90;;;;;;;17.08;100.00;150355.03;4975170;28;20223;-65
2023/09/01 04:50:43;;;;;;;2.37;0.70;;;;;;;17.01;100.00;150336.25;4956481;28;20588;-65
2023/09/01 04:53:10;;;;;;;2.30;0.80;;;;;;;17.02;100.00;150338.75;4973430;28;20221;-65
2023/09/01 04:55:37;;;;;;;2.27;1.00;;;;;;;16.88;100.00;150304.97;4972647;28;20688;-65
2023/09/01 04:58:04;;;;;;;1.63;0.70;;;;;;;16.72;100.00;150266.22;4975445;28;20242;-65
2023/09/01 05:00:31;;;;;;;1.40;0.80;;;;;;;16.73;100.00;150269.97;4977775;28;20238;-65
2023/09/01 05:02:57;;;;;;;2.13;0.83;;;;;;;16.57;100.00;150231.22;4953740;28;20243;-65
2023/09/01 05:05:25;;;;;;;2.30;0.97;;;;;;;16.53;100.00;150222.44;4962445;28;20223;-65
2023/09/01 05:07:52;;;;;;;3.80;0.80;;;;;;;16.51;100.00;150217.44;4951890;28;20247;-67
2023/09/01 05:10:19;;;;;;;1.90;0.87;;;;;;;16.51;100.00;150217.44;4973119;28;20230;-65
2023/09/01 05:12:45;;;;;;;1.83;0.80;;;;;;;16.44;100.00;150198.72;4972725;28;20231;-65
2023/09/01 05:15:12;;;;;;;2.30;0.77;;;;;;;16.40;100.00;150190.00;4976389;28;20228;-65
2023/09/01 05:17:39;;;;;;;1.20;0.90;;;;;;;16.40;100.00;150188.72;4953684;28;20237;-65
2023/09/01 05:20:09;;;;;;;2.57;1.10;;;;;;;16.36;100.00;150180.00;4958642;28;20233;-65
2023/09/01 05:22:37;;;;;;;1.60;1.10;;;;;;;16.40;100.00;150188.72;4954758;28;20235;-65
2023/09/01 05:25:05;;;;;;;1.20;0.80;;;;;;;16.38;100.00;150185.00;4975626;28;20236;-65
2023/09/01 05:27:31;;;;;;;1.60;0.60;;;;;;;16.41;100.00;150192.50;4951222;28;20245;-65
2023/09/01 05:29:58;;;;;;;1.47;1.03;;;;;;;16.44;100.00;150198.72;4971811;28;20239;-65
2023/09/01 05:32:25;;;;;;;2.47;0.90;;;;;;;16.48;100.00;150208.72;4974501;28;21071;-65
2023/09/01 05:34:51;;;;;;;2.40;0.90;;;;;;;16.45;100.00;150202.44;4956409;28;20239;-65
2023/09/01 05:37:18;;;;;;;1.37;1.00;;;;;;;16.41;100.00;150191.22;4977862;28;20228;-65
2023/09/01 05:39:46;;;;;;;2.37;0.97;;;;;;;16.46;100.00;150203.72;4975139;28;20231;-65
2023/09/01 05:42:14;;;;;;;3.93;1.00;;;;;;;16.43;100.00;150197.44;4955571;28;20235;-65
2023/09/01 05:44:42;;;;;;;2.20;0.87;;;;;;;16.48;100.00;150208.72;4956701;28;20300;-67
2023/09/01 05:47:09;;;;;;;1.53;0.70;;;;;;;16.50;100.00;150213.72;4978040;28;20314;-67
2023/09/01 05:49:35;;;;;;;0.90;0.70;;;;;;;16.47;100.00;150206.22;4973329;28;20591;-65
2023/09/01 05:52:02;;;;;;;1.57;0.70;;;;;;;16.46;100.00;150203.72;4957102;28;20246;-65
2023/09/01 05:54:29;;;;;;;2.03;1.00;;;;;;;16.38;100.00;150186.22;4959301;28;20240;-65
2023/09/01 05:56:57;;;;;;;2.13;0.80;;;;;;;16.41;100.00;150192.50;4958466;28;20272;-67
2023/09/01 05:59:24;;;;;;;2.13;0.80;;;;;;;16.45;100.00;150201.22;4960342;28;20242;-67
2023/09/01 06:01:51;;;;;;;1.73;0.80;;;;;;;16.38;100.00;150186.22;4955925;28;20246;-67
2023/09/01 06:04:17;;;;;;;1.37;0.60;;;;;;;16.43;100.00;150196.22;4959253;28;20253;-68
2023/09/01 06:06:44;;;;;;;1.57;0.60;;;;;;;16.41;100.00;150191.22;4955634;28;20219;-67
2023/09/01 06:09:10;;;;;;;1.50;0.80;;;;;;;16.45;100.00;150202.44;4960401;28;20589;-67
2023/09/01 06:11:38;;;;;;;1.77;0.80;;;;;;;16.52;100.00;150219.94;4956142;28;20239;-68
2023/09/01 06:14:06;;;;;;;1.10;0.70;;;;;;;16.56;100.00;150228.72;4951728;28;20229;-67
2023/09/01 06:16:33;;;;;;;1.13;0.50;;;;;;;16.58;100.00;150233.72;4958582;28;20231;-67
2023/09/01 06:19:00;;;;;;;1.20;0.70;;;;;;;16.76;100.00;150276.22;4960265;28;20242;-67
2023/09/01 06:21:31;;;;;;;1.40;0.60;;;;;;;16.93;100.00;150318.75;4958570;28;20228;-67
2023/09/01 06:23:57;;;;;;;2.97;0.60;;;;;;;17.08;100.00;150353.78;4958027;28;20302;-67
2023/09/01 06:26:24;;;;;;;2.33;0.70;;;;;;;17.22;100.00;150388.78;4959374;28;20227;-67
2023/09/01 06:28:51;;;;;;;0.87;0.50;;;;;;;17.34;100.00;150416.31;4953800;28;20242;-67
2023/09/01 06:31:19;;;;;;;3.73;1.83;;;;;;;17.40;100.00;150431.31;4961122;28;20239;-65
2023/09/01 06:33:47;;;;;;;1.93;0.70;;;;;;;17.44;100.00;150440.09;4957980;28;20236;-65
2023/09/01 06:36:14;;;;;;;1.83;0.50;;;;;;;17.37;100.00;150423.81;4957988;28;20714;-65
2023/09/01 06:38:41;;;;;;;1.20;0.70;;;;;;;17.29;100.00;150403.78;4957066;28;20275;-65
2023/09/01 06:41:08;;;;;;;2.93;0.63;;;;;;;17.31;100.00;150410.06;4960506;28;20224;-64
2023/09/01 06:43:35;;;;;;;1.80;0.90;;;;;;;17.37;100.00;150423.81;4950116;28;20236;-64
2023/09/01 06:46:01;;;;;;;0.70;0.70;;;;;;;17.37;100.00;150425.09;4960791;28;20241;-65
2023/09/01 06:48:30;;;;;;;1.93;0.80;;;;;;;17.31;100.00;150410.06;4962785;28;20673;-64
2023/09/01 06:50:59;;;;;;;3.67;0.93;;;;;;;17.23;100.00;150390.06;4961279;28;20249;-64
2023/09/01 06:53:26;;;;;;;3.13;0.80;;;;;;;17.32;100.00;150411.31;4962199;28;20233;-64
2023/09/01 06:55:52;;;;;;;3.27;0.53;;;;;;;17.39;100.00;150430.09;4960396;28;20718;-65
2023/09/01 06:58:19;;;;;;;2.30;0.70;;;;;;;17.43;100.00;150438.81;4962173;28;20225;-65
2023/09/01 07:00:45;;;;;;;2.60;0.57;;;;;;;17.39;100.00;150430.09;4960840;28;20347;-65
2023/09/01 07:03:12;;;;;;;1.17;0.50;;;;;;;17.48;100.00;150451.34;4963305;28;20736;-65
2023/09/01 07:05:40;;;;;;;1.77;0.50;;;;;;;17.49;100.00;150453.84;4960345;28;20228;-65
2023/09/01 07:08:13;;;;;;;0.87;0.60;;;;;;;17.43;100.00;150438.81;4962366;28;20233;-64
2023/09/01 07:10:39;;;;;;;2.33;0.60;;;;;;;17.37;100.00;150425.09;4961403;28;20282;-64
2023/09/01 07:13:09;;;;;;;2.23;0.77;;;;;;;17.40;100.00;150432.59;4961569;28;20297;-64
2023/09/01 07:15:36;;;;;;;0.70;0.60;;;;;;;17.35;100.00;150420.09;4957716;28;20230;-64
2023/09/01 07:18:03;;;;;;;1.03;0.67;;;;;;;17.36;100.00;150422.59;4962511;28;20227;-64
2023/09/01 07:20:30;;;;;;;1.43;0.70;;;;;;;17.31;100.00;150410.06;4963201;28;20220;-65
2023/09/01 07:22:58;;;;;;;1.43;0.70;;;;;;;17.49;100.00;150452.59;4959303;28;20601;-64
2023/09/01 07:25:24;;;;;;;1.83;0.60;;;;;;;17.51;100.00;150457.56;4962179;28;20230;-64
2023/09/01 07:27:51;;;;;;;2.10;0.70;;;;;;;17.59;100.00;150476.34;4958793;28;23069;-65
2023/09/01 07:30:18;;;;;;;1.07;0.57;;;;;;;17.60;100.00;150478.84;4963203;28;20222;-65
2023/09/01 07:32:44;;;;;;;2.57;0.87;;;;;;;17.71;100.00;150506.38;4957735;28;20241;-65
2023/09/01 07:35:11;;;;;;;1.73;0.70;;;;;;;17.96;100.00;150567.66;4963056;28;21033;-64
2023/09/01 07:37:38;;;;;;;1.00;0.50;;;;;;;17.88;100.00;150547.66;4959624;28;21066;-64
2023/09/01 07:40:07;;;;;;;2.33;0.80;;;;;;;18.05;100.00;150587.72;4962994;28;20229;-64
2023/09/01 07:42:33;;;;;;;0.83;0.40;;;;;;;17.90;100.00;150551.41;4959921;28;20244;-64
2023/09/01 07:45:00;;;;;;;0.77;0.50;;;;;;;17.98;100.00;150571.44;4962158;28;20581;-64
2023/09/01 07:47:27;;;;;;;0.60;0.50;;;;;;;18.16;100.00;150615.25;4960865;28;20226;-64
2023/09/01 07:49:54;;;;;;;0.70;0.50;;;;;;;18.34;100.00;150657.81;4960604;28;20728;-64
2023/09/01 07:52:20;;;;;;;1.10;0.50;;;;;;;18.35;100.00;150661.53;4962584;28;20231;-64
2023/09/01 07:54:47;;;;;;;0.83;0.47;;;;;;;18.42;100.00;150679.06;4957440;28;20214;-65
2023/09/01 07:57:15;;;;;;;1.07;0.30;;;;;;;18.59;100.00;150720.34;4962475;28;20715;-65
2023/09/01 07:59:41;;;;;;;0.83;0.40;;;;;;;18.57;100.00;150714.13;4958501;28;20226;-64
2023/09/01 08:02:08;;;;;;;0.90;0.50;;;;;;;18.63;100.00;150727.84;4961773;28;20792;-64
2023/09/01 08:04:35;;;;;;;0.90;0.40;;;;;;;18.99;100.00;150816.81;4959989;28;20230;-64
2023/09/01 08:07:01;;;;;;;0.70;0.40;;;;;;;18.93;100.00;150800.47;4962722;28;20241;-64
2023/09/01 08:09:28;;;;;;;0.70;0.30;;;;;;;19.03;99.86;150826.84;4962953;28;20222;-66
2023/09/01 08:11:55;;;;;;;1.03;0.30;;;;;;;19.06;98.72;150833.06;4976801;28;20612;-66
2023/09/01 08:14:23;;;;;;;2.23;0.30;;;;;;;19.05;98.13;150830.56;4959316;28;20222;-67
2023/09/01 08:16:49;;;;;;;1.57;0.40;;;;;;;19.01;97.78;150820.53;4958320;28;20222;-66
2023/09/01 08:19:16;;;;;;;4.70;0.40;;;;;;;19.16;96.87;150856.84;4961244;28;20904;-66
2023/09/01 08:21:43;;;;;;;0.67;0.23;;;;;;;19.35;97.08;150901.91;4957559;28;20231;-66
2023/09/01 08:24:09;;;;;;;0.60;0.40;;;;;;;19.52;97.43;150944.50;4962046;28;20229;-66
2023/09/01 08:26:37;;;;;;;2.10;0.33;;;;;;;19.32;100.00;150896.91;4959194;28;20223;-66
2023/09/01 08:29:04;;;;;;;0.70;0.40;;;;;;;19.65;94.65;150974.56;4960707;28;20249;-66
2023/09/01 08:31:34;;;;;;;1.07;0.20;;;;;;;19.98;93.37;151056.00;4957674;28;20230;-66
2023/09/01 08:34:02;;;;;;;2.00;0.30;;;;;;;20.16;91.10;151098.59;4961410;28;20238;-66
2023/09/01 08:36:33;;;;;;;0.70;0.27;;;;;;;20.17;91.20;151101.09;4959550;28;20219;-66
2023/09/01 08:39:00;;;;;;;0.80;0.40;;;;;;;20.35;88.54;151146.19;4959989;28;20621;-66
2023/09/01 08:41:53;;;;;;;1.00;0.40;;;;;;;20.57;90.29;151197.56;4957851;28;20298;-66
2023/09/01 08:44:23;;;;;;;2.13;0.40;;;;;;;20.74;88.72;151238.88;4962441;28;20215;-67
2023/09/01 08:46:53;;;;;;;1.03;0.30;;;;;;;21.03;87.00;151310.41;4958094;28;20246;-67
2023/09/01 08:49:20;;;;;;;0.43;0.40;;;;;;;20.47;91.84;151175.00;4960816;28;20300;-67
2023/09/01 08:51:48;;;;;;;2.03;0.60;;;;;;;20.42;90.77;151162.47;4950779;28;20230;-67
2023/09/01 08:54:17;;;;;;;1.80;0.70;;;;;;;20.06;91.12;151076.03;4958312;28;20232;-67
2023/09/01 08:56:44;;;;;;;1.37;0.70;;;;;;;20.33;90.64;151141.19;4959533;28;20245;-67
2023/09/01 08:59:10;;;;;;;1.90;0.50;;;;;;;20.68;88.02;151223.84;4961831;28;20223;-67
2023/09/01 09:01:38;;;;;;;1.10;0.70;;;;;;;20.22;90.08;151113.63;4956282;28;20230;-67
2023/09/01 09:04:07;;;;;;;2.73;0.60;;;;;;;20.52;91.25;151186.31;4960736;28;20323;-67
2023/09/01 09:06:34;;;;;;;2.80;0.80;;;;;;;20.54;90.47;151190.03;4957518;28;20239;-67
2023/09/01 09:09:11;;;;;;;2.10;0.80;;;;;;;20.90;84.31;151277.81;4960067;28;20842;-67
2023/09/01 09:11:38;;;;;;;1.50;0.90;;;;;;;21.01;87.26;151305.38;4957059;28;20235;-67
2023/09/01 09:14:05;;;;;;;1.77;0.80;;;;;;;20.63;86.64;151212.59;4959867;28;20707;-67
2023/09/01 09:16:33;;;;;;;1.80;0.77;;;;;;;21.40;85.64;151399.38;4956361;28;20219;-67
2023/09/01 09:19:10;;;;;;;2.73;0.90;;;;;;;21.06;84.31;151316.66;4959571;28;20813;-67
2023/09/01 09:21:37;;;;;;;3.13;1.00;;;;;;;21.26;82.66;151365.50;4958382;28;20242;-67
2023/09/01 09:24:05;;;;;;;1.97;0.80;;;;;;;21.56;80.32;151438.22;4960773;28;20239;-67
2023/09/01 09:26:33;;;;;;;3.00;1.10;;;;;;;20.95;82.92;151290.34;4953934;28;20230;-67
2023/09/01 09:29:04;;;;;;;1.27;0.90;;;;;;;21.51;82.20;151426.97;4956901;28;20231;-67
2023/09/01 09:31:37;;;;;;;2.60;0.90;;;;;;;21.91;80.08;151522.25;4956242;28;20230;-67
2023/09/01 09:34:16;;;;;;;1.73;0.80;;;;;;;22.26;79.53;151608.78;4959587;28;21037;-67
2023/09/01 09:36:43;;;;;;;2.00;0.90;;;;;;;22.18;76.52;151588.75;4956240;28;20246;-67
2023/09/01 09:39:24;;;;;;;1.93;0.80;;;;;;;22.51;75.44;151669.03;4960261;28;20247;-67
2023/09/01 09:41:51;;;;;;;2.47;0.83;;;;;;;22.13;75.70;151576.22;4957257;28;20601;-67
2023/09/01 09:44:27;;;;;;;2.23;0.83;;;;;;;21.88;79.09;151516.00;4958085;28;20226;-67
2023/09/01 09:46:54;;;;;;;1.47;0.97;;;;;;;22.01;78.06;151546.13;4956172;28;20230;-67
2023/09/01 09:49:23;;;;;;;2.20;0.90;;;;;;;22.49;77.80;151664.03;4960363;28;20224;-67
2023/09/01 09:51:51;;;;;;;1.13;0.70;;;;;;;22.35;77.36;151630.13;4957126;28;20250;-67
2023/09/01 09:54:21;;;;;;;1.73;0.77;;;;;;;22.23;76.15;151601.31;4960861;28;20286;-67
2023/09/01 09:56:49;;;;;;;2.80;0.73;;;;;;;22.81;70.00;151740.53;4958415;28;20285;-67
2023/09/01 09:59:19;;;;;;;1.90;0.80;;;;;;;23.10;72.42;151812.06;4961432;28;20225;-68
2023/09/01 10:01:47;;;;;;;1.63;0.67;;;;;;;22.99;72.15;151784.47;4956363;28;20256;-68
2023/09/01 10:04:13;;;;;;;1.43;0.70;;;;;;;23.14;70.71;151820.81;4960459;28;20245;-66
2023/09/01 10:06:43;;;;;;;2.00;0.60;;;;;;;22.41;70.67;151643.91;4958132;28;20230;-66
2023/09/01 10:09:13;;;;;;;2.40;0.70;;;;;;;23.08;70.60;151805.78;4960336;28;20222;-67
2023/09/01 10:11:43;;;;;;;1.70;0.80;;;;;;;23.04;67.34;151795.72;4957645;28;20310;-67
2023/09/01 10:14:13;;;;;;;2.93;0.70;;;;;;;22.95;71.84;151774.44;4959357;28;20608;-67
2023/09/01 10:16:40;;;;;;;2.10;0.70;;;;;;;22.52;74.01;151671.53;4954828;28;20224;-67
2023/09/01 10:19:09;;;;;;;3.13;0.70;;;;;;;23.03;72.58;151794.50;4959123;28;20592;-67
2023/09/01 10:21:35;;;;;;;2.03;0.60;;;;;;;23.36;72.05;151873.59;4959708;28;20661;-67
2023/09/01 10:24:04;;;;;;;1.83;0.70;;;;;;;23.21;69.38;151837.16;4963475;28;20237;-67
2023/09/01 10:26:34;;;;;;;1.67;0.70;;;;;;;22.36;72.98;151631.34;4961025;28;20269;-67
2023/09/01 10:29:04;;;;;;;2.33;0.87;;;;;;;22.58;73.49;151684.09;4963687;28;20240;-67
2023/09/01 10:31:37;;;;;;;2.03;0.57;;;;;;;23.14;67.81;151822.09;4957322;28;20310;-67
2023/09/01 10:34:05;;;;;;;1.40;0.77;;;;;;;23.03;70.62;151793.22;4964890;28;20234;-67
2023/09/01 10:36:33;;;;;;;5.03;0.80;;;;;;;23.10;70.81;151810.78;4961911;28;20237;-67
2023/09/01 10:39:22;;;;;;;1.83;0.70;;;;;;;23.08;70.93;151807.06;4963852;28;20257;-67
2023/09/01 10:41:54;;;;;;;1.90;0.80;;;;;;;23.03;68.53;151794.50;4960802;28;20248;-67
2023/09/01 10:44:22;;;;;;;4.23;0.87;;;;;;;22.74;70.91;151724.22;4976185;28;20305;-67
2023/09/01 10:46:49;;;;;;;1.50;0.90;;;;;;;23.44;70.74;151893.66;4959744;28;20279;-67
2023/09/01 10:49:15;;;;;;;2.57;0.90;;;;;;;23.19;70.28;151833.38;4963985;28;20238;-67
2023/09/01 10:51:43;;;;;;;1.20;0.70;;;;;;;22.73;72.88;151721.72;4960440;28;20227;-67
2023/09/01 10:54:49;;;;;;;1.70;0.90;;;;;;;23.18;71.78;151830.88;4964337;28;20237;-67
2023/09/01 10:57:18;;;;;;;1.87;1.10;;;;;;;23.80;68.88;151980.25;4953669;28;20215;-67
2023/09/01 10:59:44;;;;;;;3.80;0.90;;;;;;;24.05;69.26;152041.78;4960524;28;20234;-67
2023/09/01 11:02:20;;;;;;;2.33;1.00;;;;;;;24.30;65.14;152103.34;4960421;28;20326;-67
2023/09/01 11:04:47;;;;;;;2.53;1.03;;;;;;;23.82;67.08;151986.56;4959431;28;20237;-67
2023/09/01 11:07:14;;;;;;;1.93;1.03;;;;;;;24.31;69.48;152105.84;4964483;28;20227;-67
2023/09/01 11:09:52;;;;;;;3.53;1.20;;;;;;;24.35;64.85;152113.38;4960683;28;20252;-67
2023/09/01 11:12:31;;;;;;;1.30;0.93;;;;;;;24.54;65.72;152159.81;4963372;28;20713;-66
2023/09/01 11:15:00;;;;;;;1.50;1.00;;;;;;;25.06;61.63;152287.94;4959167;28;20239;-66
2023/09/01 11:17:34;;;;;;;2.83;1.33;;;;;;;24.82;63.07;152228.91;4960856;28;20239;-67
2023/09/01 11:20:03;;;;;;;2.93;0.93;;;;;;;24.07;64.96;152045.56;4959440;28;20227;-67
2023/09/01 11:22:29;;;;;;;3.93;1.10;;;;;;;24.39;64.73;152123.38;4962690;28;20798;-67
2023/09/01 11:24:56;;;;;;;1.30;1.00;;;;;;;24.35;65.32;152113.38;4960911;28;20247;-67
2023/09/01 11:27:24;;;;;;;2.00;0.77;;;;;;;24.57;63.08;152168.59;4960990;28;20220;-66
2023/09/01 11:29:54;;;;;;;3.33;1.10;;;;;;;24.46;63.75;152142.22;4959613;28;20359;-67